sensor_id;sensor_type;location;lat;lon;timestamp;pressure;altitude;pressure_sealevel;temperature;humidity
3150;BME280;32503;47.748;8.960;2023-04-10T00:02:20;97433.38;;;8.39;53.62
3150;BME280;32503;47.748;8.960;2023-04-10T00:04:48;97429.91;;;8.29;53.85
3150;BME280;32503;47.748;8.960;2023-04-10T00:07:15;97424.59;;;8.21;54.07
3150;BME280;32503;47.748;8.960;2023-04-10T00:09:42;97425.94;;;8.06;54.29
3150;BME280;32503;47.748;8.960;2023-04-10T00:12:10;97424.03;;;7.97;54.66
3150;BME280;32503;47.748;8.960;2023-04-10T00:14:38;97414.88;;;7.98;54.32
3150;BME280;32503;47.748;8.960;2023-04-10T00:17:06;97406.47;;;8.00;54.29
3150;BME280;32503;47.748;8.960;2023-04-10T00:19:33;97405.69;;;8.00;54.28
3150;BME280;32503;47.748;8.960;2023-04-10T00:22:00;97401.41;;;7.98;54.29
3150;BME280;32503;47.748;8.960;2023-04-10T00:24:27;97409.81;;;7.97;54.68
3150;BME280;32503;47.748;8.960;2023-04-10T00:26:55;97409.88;;;7.79;54.79
3150;BME280;32503;47.748;8.960;2023-04-10T00:29:23;97405.16;;;7.76;54.74
3150;BME280;32503;47.748;8.960;2023-04-10T00:31:51;97406.09;;;7.72;54.70
3150;BME280;32503;47.748;8.960;2023-04-10T00:34:18;97404.84;;;7.69;54.66
3150;BME280;32503;47.748;8.960;2023-04-10T00:36:45;97394.28;;;7.55;55.32
3150;BME280;32503;47.748;8.960;2023-04-10T00:39:12;97401.56;;;7.46;56.38
3150;BME280;32503;47.748;8.960;2023-04-10T00:41:40;97392.44;;;7.38;56.43
3150;BME280;32503;47.748;8.960;2023-04-10T00:44:07;97393.88;;;7.36;56.48
3150;BME280;32503;47.748;8.960;2023-04-10T00:46:36;97394.78;;;7.40;55.79
3150;BME280;32503;47.748;8.960;2023-04-10T00:49:05;97394.66;;;7.36;56.25
3150;BME280;32503;47.748;8.960;2023-04-10T00:51:35;97400.19;;;7.31;55.78
3150;BME280;32503;47.748;8.960;2023-04-10T00:54:03;97404.81;;;7.22;56.74
3150;BME280;32503;47.748;8.960;2023-04-10T00:56:31;97390.56;;;7.13;56.75
3150;BME280;32503;47.748;8.960;2023-04-10T00:58:59;97393.91;;;7.18;56.51
3150;BME280;32503;47.748;8.960;2023-04-10T01:01:27;97390.72;;;7.16;57.02
3150;BME280;32503;47.748;8.960;2023-04-10T01:03:55;97384.09;;;7.14;57.42
3150;BME280;32503;47.748;8.960;2023-04-10T01:06:34;97390.56;;;7.13;56.29
3150;BME280;32503;47.748;8.960;2023-04-10T01:09:14;97394.84;;;7.05;56.60
3150;BME280;32503;47.748;8.960;2023-04-10T01:11:50;97386.63;;;6.93;57.62
3150;BME280;32503;47.748;8.960;2023-04-10T01:14:29;97380.00;;;6.90;57.53
3150;BME280;32503;47.748;8.960;2023-04-10T01:17:03;97386.47;;;6.89;57.36
3150;BME280;32503;47.748;8.960;2023-04-10T01:19:54;97389.63;;;6.91;57.15
3150;BME280;32503;47.748;8.960;2023-04-10T01:22:40;97381.56;;;6.91;57.27
3150;BME280;32503;47.748;8.960;2023-04-10T01:25:37;97382.03;;;6.93;57.33
3150;BME280;32503;47.748;8.960;2023-04-10T01:28:20;97380.78;;;6.91;57.73
3150;BME280;32503;47.748;8.960;2023-04-10T01:30:56;97380.47;;;6.92;57.55
3150;BME280;32503;47.748;8.960;2023-04-10T01:33:29;97376.34;;;6.95;57.28
3150;BME280;32503;47.748;8.960;2023-04-10T01:36:02;97387.09;;;7.03;56.69
3150;BME280;32503;47.748;8.960;2023-04-10T01:38:31;97381.41;;;7.05;56.93
3150;BME280;32503;47.748;8.960;2023-04-10T01:40:59;97379.19;;;6.98;56.61
3150;BME280;32503;47.748;8.960;2023-04-10T01:43:28;97374.47;;;6.95;57.47
3150;BME280;32503;47.748;8.960;2023-04-10T01:45:59;97380.31;;;6.97;57.10
3150;BME280;32503;47.748;8.960;2023-04-10T01:48:27;97380.16;;;7.02;56.88
3150;BME280;32503;47.748;8.960;2023-04-10T01:50:56;97378.56;;;7.01;57.02
3150;BME280;32503;47.748;8.960;2023-04-10T01:53:24;97382.84;;;6.94;56.12
3150;BME280;32503;47.748;8.960;2023-04-10T01:55:52;97375.25;;;6.87;56.85
3150;BME280;32503;47.748;8.960;2023-04-10T01:58:19;97370.66;;;6.79;56.85
3150;BME280;32503;47.748;8.960;2023-04-10T02:00:46;97368.63;;;6.67;57.84
3150;BME280;32503;47.748;8.960;2023-04-10T02:03:15;97367.97;;;6.53;58.52
3150;BME280;32503;47.748;8.960;2023-04-10T02:05:54;97374.63;;;6.47;58.71
3150;BME280;32503;47.748;8.960;2023-04-10T02:08:34;97374.28;;;6.39;59.39
3150;BME280;32503;47.748;8.960;2023-04-10T02:11:09;97365.09;;;6.40;58.95
3150;BME280;32503;47.748;8.960;2023-04-10T02:13:40;97362.28;;;6.45;58.51
3150;BME280;32503;47.748;8.960;2023-04-10T02:16:08;97363.88;;;6.47;58.68
3150;BME280;32503;47.748;8.960;2023-04-10T02:18:38;97366.56;;;6.47;58.92
3150;BME280;32503;47.748;8.960;2023-04-10T02:21:07;97376.81;;;6.44;59.14
3150;BME280;32503;47.748;8.960;2023-04-10T02:23:35;97359.88;;;6.35;59.03
3150;BME280;32503;47.748;8.960;2023-04-10T02:26:06;97369.84;;;6.43;58.29
3150;BME280;32503;47.748;8.960;2023-04-10T02:28:33;97369.84;;;6.43;58.54
3150;BME280;32503;47.748;8.960;2023-04-10T02:31:00;97366.53;;;6.38;57.83
3150;BME280;32503;47.748;8.960;2023-04-10T02:33:27;97360.84;;;6.39;57.65
3150;BME280;32503;47.748;8.960;2023-04-10T02:35:56;97360.69;;;6.36;58.47
3150;BME280;32503;47.748;8.960;2023-04-10T02:38:23;97340.75;;;6.19;58.15
3150;BME280;32503;47.748;8.960;2023-04-10T02:40:50;97352.00;;;6.21;59.07
3150;BME280;32503;47.748;8.960;2023-04-10T02:43:17;97356.56;;;6.21;59.36
3150;BME280;32503;47.748;8.960;2023-04-10T02:45:44;97354.69;;;6.21;59.30
3150;BME280;32503;47.748;8.960;2023-04-10T02:48:11;97355.16;;;6.23;58.95
3150;BME280;32503;47.748;8.960;2023-04-10T02:50:38;97359.56;;;6.11;59.17
3150;BME280;32503;47.748;8.960;2023-04-10T02:53:14;97369.75;;;6.00;59.98
3150;BME280;32503;47.748;8.960;2023-04-10T02:55:42;97347.28;;;5.87;59.58
3150;BME280;32503;47.748;8.960;2023-04-10T02:58:09;97367.72;;;5.97;59.38
3150;BME280;32503;47.748;8.960;2023-04-10T03:00:36;97369.22;;;5.89;60.12
3150;BME280;32503;47.748;8.960;2023-04-10T03:03:04;97367.94;;;5.78;60.65
3150;BME280;32503;47.748;8.960;2023-04-10T03:05:31;97375.03;;;5.74;60.59
3150;BME280;32503;47.748;8.960;2023-04-10T03:07:59;97375.16;;;5.68;61.21
3150;BME280;32503;47.748;8.960;2023-04-10T03:10:27;97380.53;;;5.68;61.16
3150;BME280;32503;47.748;8.960;2023-04-10T03:12:55;97382.13;;;5.78;60.32
3150;BME280;32503;47.748;8.960;2023-04-10T03:15:22;97394.03;;;5.86;60.28
3150;BME280;32503;47.748;8.960;2023-04-10T03:17:49;97389.75;;;5.85;60.11
3150;BME280;32503;47.748;8.960;2023-04-10T03:20:16;97395.28;;;5.88;60.26
3150;BME280;32503;47.748;8.960;2023-04-10T03:22:43;97384.25;;;5.90;59.73
3150;BME280;32503;47.748;8.960;2023-04-10T03:25:10;97393.38;;;5.89;59.91
3150;BME280;32503;47.748;8.960;2023-04-10T03:27:39;97384.84;;;5.87;60.34
3150;BME280;32503;47.748;8.960;2023-04-10T03:30:07;97392.25;;;5.81;60.39
3150;BME280;32503;47.748;8.960;2023-04-10T03:32:35;97399.03;;;5.79;60.26
3150;BME280;32503;47.748;8.960;2023-04-10T03:35:04;97392.88;;;5.78;59.95
3150;BME280;32503;47.748;8.960;2023-04-10T03:37:31;97388.94;;;5.76;59.99
3150;BME280;32503;47.748;8.960;2023-04-10T03:39:58;97393.31;;;5.72;60.01
3150;BME280;32503;47.748;8.960;2023-04-10T03:42:25;97395.03;;;5.67;59.75
3150;BME280;32503;47.748;8.960;2023-04-10T03:44:54;97386.03;;;5.63;59.62
3150;BME280;32503;47.748;8.960;2023-04-10T03:47:21;97385.84;;;5.60;59.87
3150;BME280;32503;47.748;8.960;2023-04-10T03:49:48;97384.41;;;5.54;60.01
3150;BME280;32503;47.748;8.960;2023-04-10T03:52:15;97379.47;;;5.47;60.28
3150;BME280;32503;47.748;8.960;2023-04-10T03:54:42;97376.78;;;5.47;59.69
3150;BME280;32503;47.748;8.960;2023-04-10T03:57:09;97381.53;;;5.50;59.79
3150;BME280;32503;47.748;8.960;2023-04-10T03:59:36;97375.69;;;5.48;59.46
3150;BME280;32503;47.748;8.960;2023-04-10T04:02:05;97376.94;;;5.42;59.77
3150;BME280;32503;47.748;8.960;2023-04-10T04:04:33;97379.75;;;5.37;60.31
3150;BME280;32503;47.748;8.960;2023-04-10T04:07:00;97379.25;;;5.35;60.34
3150;BME280;32503;47.748;8.960;2023-04-10T04:09:27;97379.88;;;5.31;60.11
3150;BME280;32503;47.748;8.960;2023-04-10T04:11:54;97352.97;;;5.14;60.53
3150;BME280;32503;47.748;8.960;2023-04-10T04:14:21;97375.38;;;5.18;60.44
3150;BME280;32503;47.748;8.960;2023-04-10T04:16:48;97375.19;;;5.15;60.75
3150;BME280;32503;47.748;8.960;2023-04-10T04:19:17;97374.72;;;5.12;60.87
3150;BME280;32503;47.748;8.960;2023-04-10T04:21:44;97380.38;;;5.11;60.89
3150;BME280;32503;47.748;8.960;2023-04-10T04:24:11;97367.56;;;5.08;60.91
3150;BME280;32503;47.748;8.960;2023-04-10T04:26:38;97371.84;;;5.09;60.99
3150;BME280;32503;47.748;8.960;2023-04-10T04:29:05;97363.94;;;5.04;61.02
3150;BME280;32503;47.748;8.960;2023-04-10T04:31:32;97363.34;;;5.07;61.35
3150;BME280;32503;47.748;8.960;2023-04-10T04:33:59;97348.63;;;5.04;60.93
3150;BME280;32503;47.748;8.960;2023-04-10T04:36:28;97368.38;;;5.08;61.03
3150;BME280;32503;47.748;8.960;2023-04-10T04:38:56;97367.56;;;5.08;61.09
3150;BME280;32503;47.748;8.960;2023-04-10T04:41:23;97366.50;;;5.09;60.75
3150;BME280;32503;47.748;8.960;2023-04-10T04:43:50;97372.03;;;5.12;60.73
3150;BME280;32503;47.748;8.960;2023-04-10T04:46:18;97375.97;;;5.15;60.77
3150;BME280;32503;47.748;8.960;2023-04-10T04:48:45;97369.16;;;5.09;60.77
3150;BME280;32503;47.748;8.960;2023-04-10T04:51:12;97378.78;;;5.10;61.00
3150;BME280;32503;47.748;8.960;2023-04-10T04:53:40;97374.84;;;5.07;61.06
3150;BME280;32503;47.748;8.960;2023-04-10T04:56:08;97377.50;;;5.07;61.15
3150;BME280;32503;47.748;8.960;2023-04-10T04:58:35;97382.94;;;5.16;60.67
3150;BME280;32503;47.748;8.960;2023-04-10T05:01:02;97389.13;;;5.25;60.77
3150;BME280;32503;47.748;8.960;2023-04-10T05:03:29;97388.06;;;5.58;60.30
3150;BME280;32503;47.748;8.960;2023-04-10T05:05:57;97379.50;;;5.87;59.22
3150;BME280;32503;47.748;8.960;2023-04-10T05:08:24;97383.84;;;6.05;59.28
3150;BME280;32503;47.748;8.960;2023-04-10T05:10:52;97382.31;;;6.31;58.43
3150;BME280;32503;47.748;8.960;2023-04-10T05:13:20;97382.50;;;6.52;57.50
3150;BME280;32503;47.748;8.960;2023-04-10T05:15:47;97389.31;;;6.67;57.21
3150;BME280;32503;47.748;8.960;2023-04-10T05:18:15;97389.00;;;6.77;56.70
3150;BME280;32503;47.748;8.960;2023-04-10T05:20:45;97389.78;;;6.95;57.11
3150;BME280;32503;47.748;8.960;2023-04-10T05:23:12;97392.94;;;6.97;56.32
3150;BME280;32503;47.748;8.960;2023-04-10T05:25:39;97389.78;;;6.95;55.93
3150;BME280;32503;47.748;8.960;2023-04-10T05:28:08;97399.13;;;6.97;56.36
3150;BME280;32503;47.748;8.960;2023-04-10T05:30:35;97400.38;;;7.00;55.62
3150;BME280;32503;47.748;8.960;2023-04-10T05:33:02;97397.53;;;7.05;56.39
3150;BME280;32503;47.748;8.960;2023-04-10T05:35:29;97404.97;;;7.17;55.38
3150;BME280;32503;47.748;8.960;2023-04-10T05:37:56;97408.44;;;7.26;55.67
3150;BME280;32503;47.748;8.960;2023-04-10T05:40:23;97409.34;;;7.30;55.24
3150;BME280;32503;47.748;8.960;2023-04-10T05:42:51;97402.22;;;7.52;55.59
3150;BME280;32503;47.748;8.960;2023-04-10T05:45:19;97405.19;;;7.68;55.44
3150;BME280;32503;47.748;8.960;2023-04-10T05:47:46;97417.00;;;7.84;54.46
3150;BME280;32503;47.748;8.960;2023-04-10T05:50:13;97418.31;;;8.08;54.24
3150;BME280;32503;47.748;8.960;2023-04-10T05:52:40;97422.66;;;8.30;54.30
3150;BME280;32503;47.748;8.960;2023-04-10T05:55:08;97422.66;;;8.60;53.72
3150;BME280;32503;47.748;8.960;2023-04-10T05:57:35;97419.78;;;8.86;53.36
3150;BME280;32503;47.748;8.960;2023-04-10T06:00:04;97422.94;;;9.09;52.88
3150;BME280;32503;47.748;8.960;2023-04-10T06:02:32;97417.75;;;9.37;51.34
3150;BME280;32503;47.748;8.960;2023-04-10T06:05:00;97420.88;;;9.60;50.33
3150;BME280;32503;47.748;8.960;2023-04-10T06:07:27;97425.03;;;9.70;50.03
3150;BME280;32503;47.748;8.960;2023-04-10T06:09:54;97420.09;;;9.84;50.01
3150;BME280;32503;47.748;8.960;2023-04-10T06:12:21;97418.78;;;10.15;49.81
3150;BME280;32503;47.748;8.960;2023-04-10T06:14:48;97421.28;;;10.45;48.38
3150;BME280;32503;47.748;8.960;2023-04-10T06:17:15;97424.53;;;10.63;48.70
3150;BME280;32503;47.748;8.960;2023-04-10T06:19:43;97424.50;;;10.75;48.06
3150;BME280;32503;47.748;8.960;2023-04-10T06:22:10;97424.59;;;10.91;47.75
3150;BME280;32503;47.748;8.960;2023-04-10T06:24:37;97415.53;;;11.12;46.80
3150;BME280;32503;47.748;8.960;2023-04-10T06:27:04;97413.94;;;11.39;46.45
3150;BME280;32503;47.748;8.960;2023-04-10T06:29:31;97414.06;;;11.58;45.41
3150;BME280;32503;47.748;8.960;2023-04-10T06:31:58;97414.66;;;11.68;44.71
3150;BME280;32503;47.748;8.960;2023-04-10T06:34:25;97413.47;;;11.65;43.93
3150;BME280;32503;47.748;8.960;2023-04-10T06:36:54;97418.75;;;11.46;44.29
3150;BME280;32503;47.748;8.960;2023-04-10T06:39:21;97415.41;;;11.36;44.45
3150;BME280;32503;47.748;8.960;2023-04-10T06:41:48;97417.94;;;11.45;44.12
3150;BME280;32503;47.748;8.960;2023-04-10T06:44:15;97410.38;;;11.51;44.48
3150;BME280;32503;47.748;8.960;2023-04-10T06:46:42;97410.38;;;11.51;44.26
3150;BME280;32503;47.748;8.960;2023-04-10T06:49:09;97410.56;;;11.58;44.97
3150;BME280;32503;47.748;8.960;2023-04-10T06:51:36;97411.34;;;11.58;45.63
3150;BME280;32503;47.748;8.960;2023-04-10T06:54:04;97412.78;;;11.68;44.94
3150;BME280;32503;47.748;8.960;2023-04-10T06:56:31;97412.78;;;11.84;44.46
3150;BME280;32503;47.748;8.960;2023-04-10T06:58:58;97408.25;;;12.04;43.45
3150;BME280;32503;47.748;8.960;2023-04-10T07:01:26;97406.41;;;12.24;43.85
3150;BME280;32503;47.748;8.960;2023-04-10T07:03:53;97401.84;;;12.44;43.22
3150;BME280;32503;47.748;8.960;2023-04-10T07:06:20;97406.25;;;12.52;43.25
3150;BME280;32503;47.748;8.960;2023-04-10T07:08:48;97396.88;;;12.66;43.13
3150;BME280;32503;47.748;8.960;2023-04-10T07:11:17;97389.91;;;12.84;42.32
3150;BME280;32503;47.748;8.960;2023-04-10T07:13:44;97389.63;;;13.09;42.02
3150;BME280;32503;47.748;8.960;2023-04-10T07:16:11;97401.84;;;13.38;41.56
3150;BME280;32503;47.748;8.960;2023-04-10T07:18:38;97390.44;;;13.72;40.77
3150;BME280;32503;47.748;8.960;2023-04-10T07:21:09;97371.41;;;13.95;40.38
3150;BME280;32503;47.748;8.960;2023-04-10T07:23:37;97396.84;;;14.33;39.67
3150;BME280;32503;47.748;8.960;2023-04-10T07:26:05;97388.41;;;14.41;38.56
3150;BME280;32503;47.748;8.960;2023-04-10T07:28:34;97391.53;;;14.40;38.77
3150;BME280;32503;47.748;8.960;2023-04-10T07:31:01;97387.22;;;14.66;38.23
3150;BME280;32503;47.748;8.960;2023-04-10T07:33:28;97354.06;;;14.87;38.13
3150;BME280;32503;47.748;8.960;2023-04-10T07:35:55;97393.13;;;15.32;37.49
3150;BME280;32503;47.748;8.960;2023-04-10T07:38:22;97377.47;;;15.63;36.95
3150;BME280;32503;47.748;8.960;2023-04-10T07:40:55;97391.44;;;15.99;36.76
3150;BME280;32503;47.748;8.960;2023-04-10T07:43:23;97378.34;;;16.15;35.45
3150;BME280;32503;47.748;8.960;2023-04-10T07:45:51;97391.31;;;16.33;35.67
3150;BME280;32503;47.748;8.960;2023-04-10T07:48:18;97394.31;;;16.17;35.78
3150;BME280;32503;47.748;8.960;2023-04-10T07:50:46;97395.91;;;16.21;35.98
3150;BME280;32503;47.748;8.960;2023-04-10T07:53:13;97393.75;;;16.45;35.80
3150;BME280;32503;47.748;8.960;2023-04-10T07:55:42;97386.47;;;16.67;35.42
3150;BME280;32503;47.748;8.960;2023-04-10T07:58:10;97383.47;;;16.90;34.87
3150;BME280;32503;47.748;8.960;2023-04-10T08:00:37;97381.59;;;17.01;34.78
3150;BME280;32503;47.748;8.960;2023-04-10T08:03:05;97391.56;;;16.76;34.77
3150;BME280;32503;47.748;8.960;2023-04-10T08:05:33;97396.78;;;16.95;35.37
3150;BME280;32503;47.748;8.960;2023-04-10T08:08:00;97391.78;;;17.15;35.13
3150;BME280;32503;47.748;8.960;2023-04-10T08:10:27;97400.13;;;17.62;34.45
3150;BME280;32503;47.748;8.960;2023-04-10T08:12:54;97396.66;;;17.90;33.46
3150;BME280;32503;47.748;8.960;2023-04-10T08:15:21;97405.72;;;16.92;34.10
3150;BME280;32503;47.748;8.960;2023-04-10T08:17:48;97399.91;;;16.97;34.48
3150;BME280;32503;47.748;8.960;2023-04-10T08:20:17;97398.78;;;17.05;34.78
3150;BME280;32503;47.748;8.960;2023-04-10T08:22:44;97399.59;;;17.17;34.40
3150;BME280;32503;47.748;8.960;2023-04-10T08:25:11;97387.53;;;17.29;34.94
3150;BME280;32503;47.748;8.960;2023-04-10T08:27:38;97372.38;;;17.60;34.69
3150;BME280;32503;47.748;8.960;2023-04-10T08:30:07;97399.41;;;18.12;33.74
3150;BME280;32503;47.748;8.960;2023-04-10T08:32:35;97384.56;;;17.98;32.16
3150;BME280;32503;47.748;8.960;2023-04-10T08:35:06;97394.28;;;17.81;33.58
3150;BME280;32503;47.748;8.960;2023-04-10T08:37:35;97387.22;;;17.62;32.93
3150;BME280;32503;47.748;8.960;2023-04-10T08:40:02;97389.94;;;16.64;34.24
3150;BME280;32503;47.748;8.960;2023-04-10T08:42:30;97385.50;;;15.89;36.14
3150;BME280;32503;47.748;8.960;2023-04-10T08:44:57;97389.66;;;16.21;36.86
3150;BME280;32503;47.748;8.960;2023-04-10T08:47:27;97386.09;;;16.72;36.91
3150;BME280;32503;47.748;8.960;2023-04-10T08:49:56;97386.75;;;17.21;34.97
3150;BME280;32503;47.748;8.960;2023-04-10T08:52:25;97350.88;;;17.48;34.70
3150;BME280;32503;47.748;8.960;2023-04-10T08:54:58;97384.56;;;17.88;34.04
3150;BME280;32503;47.748;8.960;2023-04-10T08:57:26;97379.03;;;17.66;34.73
3150;BME280;32503;47.748;8.960;2023-04-10T08:59:53;97388.38;;;17.47;34.36
3150;BME280;32503;47.748;8.960;2023-04-10T09:02:21;97385.13;;;17.05;34.17
3150;BME280;32503;47.748;8.960;2023-04-10T09:04:50;97336.00;;;16.43;35.66
3150;BME280;32503;47.748;8.960;2023-04-10T09:07:20;97372.56;;;16.90;36.03
3150;BME280;32503;47.748;8.960;2023-04-10T09:09:48;97388.28;;;17.25;35.96
3150;BME280;32503;47.748;8.960;2023-04-10T09:12:16;97384.91;;;17.72;35.16
3150;BME280;32503;47.748;8.960;2023-04-10T09:14:43;97387.31;;;18.16;34.60
3150;BME280;32503;47.748;8.960;2023-04-10T09:17:14;97385.69;;;18.37;34.12
3150;BME280;32503;47.748;8.960;2023-04-10T09:19:42;97393.53;;;18.56;33.19
3150;BME280;32503;47.748;8.960;2023-04-10T09:22:13;97389.97;;;17.66;34.15
3150;BME280;32503;47.748;8.960;2023-04-10T09:24:42;97373.81;;;17.07;35.28
3150;BME280;32503;47.748;8.960;2023-04-10T09:27:10;97376.63;;;17.39;35.45
3150;BME280;32503;47.748;8.960;2023-04-10T09:29:43;97366.94;;;17.81;35.72
3150;BME280;32503;47.748;8.960;2023-04-10T09:32:24;97367.34;;;18.02;34.16
3150;BME280;32503;47.748;8.960;2023-04-10T09:35:01;97369.63;;;17.38;34.71
3150;BME280;32503;47.748;8.960;2023-04-10T09:37:31;97362.19;;;17.35;35.50
3150;BME280;32503;47.748;8.960;2023-04-10T09:39:58;97362.44;;;16.94;35.42
3150;BME280;32503;47.748;8.960;2023-04-10T09:42:30;97352.00;;;16.41;36.55
3150;BME280;32503;47.748;8.960;2023-04-10T09:45:00;97351.59;;;16.39;36.18
3150;BME280;32503;47.748;8.960;2023-04-10T09:47:27;97330.28;;;16.00;36.54
3150;BME280;32503;47.748;8.960;2023-04-10T09:49:56;97347.53;;;16.18;36.60
3150;BME280;32503;47.748;8.960;2023-04-10T09:52:27;97344.31;;;16.57;36.66
3150;BME280;32503;47.748;8.960;2023-04-10T09:54:56;97342.53;;;16.97;36.82
3150;BME280;32503;47.748;8.960;2023-04-10T09:57:29;97312.78;;;16.74;35.32
3150;BME280;32503;47.748;8.960;2023-04-10T10:00:00;97343.16;;;16.65;35.94
3150;BME280;32503;47.748;8.960;2023-04-10T10:02:30;97335.13;;;16.91;35.66
3150;BME280;32503;47.748;8.960;2023-04-10T10:04:58;97338.94;;;16.75;35.98
3150;BME280;32503;47.748;8.960;2023-04-10T10:07:27;97327.59;;;16.66;37.35
3150;BME280;32503;47.748;8.960;2023-04-10T10:09:55;97325.81;;;16.29;38.12
3150;BME280;32503;47.748;8.960;2023-04-10T10:12:28;97315.78;;;16.51;38.40
3150;BME280;32503;47.748;8.960;2023-04-10T10:15:06;97313.59;;;16.82;38.38
3150;BME280;32503;47.748;8.960;2023-04-10T10:17:39;97309.88;;;17.48;36.94
3150;BME280;32503;47.748;8.960;2023-04-10T10:20:09;97294.25;;;17.59;34.91
3150;BME280;32503;47.748;8.960;2023-04-10T10:22:37;97304.41;;;17.48;35.07
3150;BME280;32503;47.748;8.960;2023-04-10T10:25:06;97297.41;;;17.72;35.37
3150;BME280;32503;47.748;8.960;2023-04-10T10:27:36;97286.84;;;18.10;34.28
3150;BME280;32503;47.748;8.960;2023-04-10T10:30:08;97275.44;;;18.40;34.34
3150;BME280;32503;47.748;8.960;2023-04-10T10:32:37;97283.19;;;18.60;32.55
3150;BME280;32503;47.748;8.960;2023-04-10T10:35:06;97285.84;;;18.92;32.28
3150;BME280;32503;47.748;8.960;2023-04-10T10:37:34;97268.72;;;19.37;32.81
3150;BME280;32503;47.748;8.960;2023-04-10T10:40:09;97273.81;;;18.57;30.72
3150;BME280;32503;47.748;8.960;2023-04-10T10:42:45;97274.47;;;18.97;32.23
3150;BME280;32503;47.748;8.960;2023-04-10T10:45:22;97278.31;;;19.07;30.78
3150;BME280;32503;47.748;8.960;2023-04-10T10:47:53;97265.34;;;19.14;30.96
3150;BME280;32503;47.748;8.960;2023-04-10T10:50:20;97264.81;;;19.38;30.87
3150;BME280;32503;47.748;8.960;2023-04-10T10:52:49;97261.75;;;19.81;30.74
3150;BME280;32503;47.748;8.960;2023-04-10T10:55:31;97256.16;;;19.92;29.20
3150;BME280;32503;47.748;8.960;2023-04-10T10:58:05;97247.28;;;19.24;29.16
3150;BME280;32503;47.748;8.960;2023-04-10T11:01:07;97241.13;;;19.06;29.39
3150;BME280;32503;47.748;8.960;2023-04-10T11:03:34;97241.66;;;18.72;30.12
3150;BME280;32503;47.748;8.960;2023-04-10T11:06:05;97230.16;;;18.17;30.25
3150;BME280;32503;47.748;8.960;2023-04-10T11:08:41;97229.31;;;18.35;30.75
3150;BME280;32503;47.748;8.960;2023-04-10T11:11:18;97228.56;;;18.24;30.57
3150;BME280;32503;47.748;8.960;2023-04-10T11:14:12;97224.38;;;17.65;30.57
3150;BME280;32503;47.748;8.960;2023-04-10T11:16:46;97231.00;;;17.42;31.13
3150;BME280;32503;47.748;8.960;2023-04-10T11:19:13;97227.75;;;16.68;32.44
3150;BME280;32503;47.748;8.960;2023-04-10T11:22:03;97215.38;;;17.03;32.86
3150;BME280;32503;47.748;8.960;2023-04-10T11:24:55;97208.75;;;17.55;33.32
3150;BME280;32503;47.748;8.960;2023-04-10T11:27:41;97223.19;;;17.27;31.80
3150;BME280;32503;47.748;8.960;2023-04-10T11:30:30;97219.31;;;17.38;32.11
3150;BME280;32503;47.748;8.960;2023-04-10T11:33:00;97226.31;;;17.83;30.38
3150;BME280;32503;47.748;8.960;2023-04-10T11:35:30;97214.22;;;17.58;31.13
3150;BME280;32503;47.748;8.960;2023-04-10T11:38:11;97189.97;;;17.71;31.25
3150;BME280;32503;47.748;8.960;2023-04-10T11:40:57;97211.84;;;18.00;32.49
3150;BME280;32503;47.748;8.960;2023-04-10T11:43:24;97200.84;;;18.14;32.28
3150;BME280;32503;47.748;8.960;2023-04-10T11:46:03;97184.47;;;18.07;31.82
3150;BME280;32503;47.748;8.960;2023-04-10T11:48:35;97205.22;;;17.72;31.82
3150;BME280;32503;47.748;8.960;2023-04-10T11:51:09;97206.41;;;17.28;32.84
3150;BME280;32503;47.748;8.960;2023-04-10T11:53:37;97202.13;;;17.41;31.49
3150;BME280;32503;47.748;8.960;2023-04-10T11:56:14;97184.16;;;17.58;29.19
3150;BME280;32503;47.748;8.960;2023-04-10T11:58:43;97202.81;;;18.10;28.24
3150;BME280;32503;47.748;8.960;2023-04-10T12:01:10;97205.09;;;18.30;27.04
3150;BME280;32503;47.748;8.960;2023-04-10T12:03:42;97190.16;;;18.49;26.34
3150;BME280;32503;47.748;8.960;2023-04-10T12:06:10;97179.94;;;18.64;27.04
3150;BME280;32503;47.748;8.960;2023-04-10T12:08:41;97178.31;;;18.70;26.75
3150;BME280;32503;47.748;8.960;2023-04-10T12:11:10;97192.28;;;18.93;22.35
3150;BME280;32503;47.748;8.960;2023-04-10T12:13:38;97187.19;;;18.96;25.66
3150;BME280;32503;47.748;8.960;2023-04-10T12:16:07;97193.47;;;18.92;26.78
3150;BME280;32503;47.748;8.960;2023-04-10T12:18:35;97177.34;;;19.02;26.46
3150;BME280;32503;47.748;8.960;2023-04-10T12:21:04;97173.47;;;18.99;26.35
3150;BME280;32503;47.748;8.960;2023-04-10T12:23:32;97177.66;;;19.11;25.20
3150;BME280;32503;47.748;8.960;2023-04-10T12:26:10;97174.13;;;19.14;25.10
3150;BME280;32503;47.748;8.960;2023-04-10T12:28:39;97143.25;;;19.10;25.27
3150;BME280;32503;47.748;8.960;2023-04-10T12:31:07;97167.16;;;19.51;24.87
3150;BME280;32503;47.748;8.960;2023-04-10T12:33:35;97166.56;;;19.74;25.46
3150;BME280;32503;47.748;8.960;2023-04-10T12:36:04;97158.59;;;19.87;24.75
3150;BME280;32503;47.748;8.960;2023-04-10T12:38:36;97133.75;;;19.63;25.39
3150;BME280;32503;47.748;8.960;2023-04-10T12:41:03;97142.19;;;19.42;24.25
3150;BME280;32503;47.748;8.960;2023-04-10T12:43:33;97148.75;;;19.51;25.70
3150;BME280;32503;47.748;8.960;2023-04-10T12:46:01;97132.22;;;19.59;26.70
3150;BME280;32503;47.748;8.960;2023-04-10T12:48:28;97143.63;;;19.57;26.08
3150;BME280;32503;47.748;8.960;2023-04-10T12:50:55;97137.75;;;19.55;26.11
3150;BME280;32503;47.748;8.960;2023-04-10T12:53:25;97131.44;;;19.58;26.09
3150;BME280;32503;47.748;8.960;2023-04-10T12:56:00;97125.16;;;19.61;25.60
3150;BME280;32503;47.748;8.960;2023-04-10T12:58:29;97130.50;;;19.34;26.12
3150;BME280;32503;47.748;8.960;2023-04-10T13:00:58;97120.94;;;19.49;26.19
3150;BME280;32503;47.748;8.960;2023-04-10T13:03:28;97134.91;;;19.62;26.47
3150;BME280;32503;47.748;8.960;2023-04-10T13:05:55;97130.28;;;19.59;26.13
3150;BME280;32503;47.748;8.960;2023-04-10T13:08:24;97129.47;;;19.59;26.26
3150;BME280;32503;47.748;8.960;2023-04-10T13:10:51;97118.31;;;19.39;25.88
3150;BME280;32503;47.748;8.960;2023-04-10T13:13:20;97116.00;;;19.33;25.82
3150;BME280;32503;47.748;8.960;2023-04-10T13:15:47;97123.50;;;19.29;25.82
3150;BME280;32503;47.748;8.960;2023-04-10T13:18:14;97110.59;;;19.26;26.43
3150;BME280;32503;47.748;8.960;2023-04-10T13:20:41;97103.41;;;19.43;26.17
3150;BME280;32503;47.748;8.960;2023-04-10T13:23:08;97107.50;;;19.62;25.86
3150;BME280;32503;47.748;8.960;2023-04-10T13:25:38;97110.19;;;19.69;26.43
3150;BME280;32503;47.748;8.960;2023-04-10T13:28:07;97089.91;;;19.60;26.51